sensor_id;sensor_type;location;lat;lon;timestamp;pressure;altitude;pressure_sealevel;temperature;humidity
6028;BME280;3042;43.194;27.646;2023-02-03T00:00:01;101776.03;;;10.94;100.00
6028;BME280;3042;43.194;27.646;2023-02-03T00:02:28;101785.66;;;10.82;100.00
6028;BME280;3042;43.194;27.646;2023-02-03T00:04:55;101777.78;;;10.95;100.00
6028;BME280;3042;43.194;27.646;2023-02-03T00:07:22;101587.53;;;9.81;100.00
6028;BME280;3042;43.194;27.646;2023-02-03T00:09:50;101792.75;;;10.86;100.00
6028;BME280;3042;43.194;27.646;2023-02-03T00:12:18;101793.75;;;11.03;100.00
6028;BME280;3042;43.194;27.646;2023-02-03T00:14:45;101804.38;;;10.64;100.00
6028;BME280;3042;43.194;27.646;2023-02-03T00:17:12;101816.38;;;10.49;100.00
6028;BME280;3042;43.194;27.646;2023-02-03T00:19:39;101811.72;;;10.71;100.00
6028;BME280;3042;43.194;27.646;2023-02-03T00:22:06;101806.13;;;10.78;100.00
6028;BME280;3042;43.194;27.646;2023-02-03T00:24:33;101820.88;;;10.66;100.00
6028;BME280;3042;43.194;27.646;2023-02-03T00:27:01;101804.97;;;10.88;100.00
6028;BME280;3042;43.194;27.646;2023-02-03T00:29:29;101794.94;;;11.08;100.00
6028;BME280;3042;43.194;27.646;2023-02-03T00:31:56;101800.28;;;10.96;100.00
6028;BME280;3042;43.194;27.646;2023-02-03T00:34:27;101790.50;;;11.05;100.00
6028;BME280;3042;43.194;27.646;2023-02-03T00:36:54;101808.56;;;10.62;100.00
6028;BME280;3042;43.194;27.646;2023-02-03T00:39:21;101809.59;;;10.51;100.00
6028;BME280;3042;43.194;27.646;2023-02-03T00:41:48;101810.88;;;10.57;100.00
6028;BME280;3042;43.194;27.646;2023-02-03T00:44:15;101812.00;;;10.48;100.00
6028;BME280;3042;43.194;27.646;2023-02-03T00:46:43;101658.84;;;9.52;100.00
6028;BME280;3042;43.194;27.646;2023-02-03T00:49:10;101811.81;;;10.45;100.00
6028;BME280;3042;43.194;27.646;2023-02-03T00:51:37;101822.19;;;10.31;100.00
6028;BME280;3042;43.194;27.646;2023-02-03T00:54:04;101822.38;;;10.08;100.00
6028;BME280;3042;43.194;27.646;2023-02-03T00:56:32;101815.63;;;10.10;100.00
6028;BME280;3042;43.194;27.646;2023-02-03T00:58:59;101820.19;;;9.87;100.00
6028;BME280;3042;43.194;27.646;2023-02-03T01:01:26;101817.84;;;9.90;100.00
6028;BME280;3042;43.194;27.646;2023-02-03T01:03:55;101813.16;;;10.11;100.00
6028;BME280;3042;43.194;27.646;2023-02-03T01:06:22;101806.00;;;10.07;100.00
6028;BME280;3042;43.194;27.646;2023-02-03T01:08:49;101811.88;;;10.05;100.00
6028;BME280;3042;43.194;27.646;2023-02-03T01:11:18;101816.03;;;10.16;100.00
6028;BME280;3042;43.194;27.646;2023-02-03T01:13:45;101819.19;;;10.12;100.00
6028;BME280;3042;43.194;27.646;2023-02-03T01:16:14;101813.44;;;10.29;100.00
6028;BME280;3042;43.194;27.646;2023-02-03T01:18:42;101818.81;;;10.32;100.00
6028;BME280;3042;43.194;27.646;2023-02-03T01:21:13;101797.16;;;10.59;100.00
6028;BME280;3042;43.194;27.646;2023-02-03T01:23:41;101582.75;;;9.18;100.00
6028;BME280;3042;43.194;27.646;2023-02-03T01:26:10;101796.47;;;10.61;100.00
6028;BME280;3042;43.194;27.646;2023-02-03T01:28:38;101805.25;;;10.37;100.00
6028;BME280;3042;43.194;27.646;2023-02-03T01:31:10;101796.50;;;10.48;100.00
6028;BME280;3042;43.194;27.646;2023-02-03T01:33:37;101805.97;;;10.34;100.00
6028;BME280;3042;43.194;27.646;2023-02-03T01:36:06;101793.72;;;10.45;100.00
6028;BME280;3042;43.194;27.646;2023-02-03T01:38:36;101803.53;;;10.50;100.00
6028;BME280;3042;43.194;27.646;2023-02-03T01:41:05;101808.63;;;10.49;100.00
6028;BME280;3042;43.194;27.646;2023-02-03T01:43:35;101823.50;;;10.53;100.00
6028;BME280;3042;43.194;27.646;2023-02-03T01:46:05;101783.59;;;10.34;100.00
6028;BME280;3042;43.194;27.646;2023-02-03T01:48:33;101822.81;;;10.55;100.00
6028;BME280;3042;43.194;27.646;2023-02-03T01:51:01;101812.97;;;10.63;100.00
6028;BME280;3042;43.194;27.646;2023-02-03T01:53:30;101657.00;;;9.78;100.00
6028;BME280;3042;43.194;27.646;2023-02-03T01:56:00;101807.69;;;10.62;100.00
6028;BME280;3042;43.194;27.646;2023-02-03T01:58:31;101810.38;;;10.63;100.00
6028;BME280;3042;43.194;27.646;2023-02-03T02:01:00;101812.38;;;10.54;100.00
6028;BME280;3042;43.194;27.646;2023-02-03T02:03:31;101810.56;;;10.66;100.00
6028;BME280;3042;43.194;27.646;2023-02-03T02:06:04;101813.16;;;10.53;100.00
6028;BME280;3042;43.194;27.646;2023-02-03T02:08:32;101822.00;;;10.28;100.00
6028;BME280;3042;43.194;27.646;2023-02-03T02:11:01;101816.38;;;10.49;100.00
6028;BME280;3042;43.194;27.646;2023-02-03T02:13:30;101818.19;;;10.37;100.00
6028;BME280;3042;43.194;27.646;2023-02-03T02:16:06;101810.41;;;10.50;100.00
6028;BME280;3042;43.194;27.646;2023-02-03T02:18:52;101807.50;;;10.59;100.00
6028;BME280;3042;43.194;27.646;2023-02-03T02:21:50;101803.59;;;10.65;100.00
6028;BME280;3042;43.194;27.646;2023-02-03T02:27:28;101819.78;;;10.34;100.00
6028;BME280;3042;43.194;27.646;2023-02-03T02:30:29;101806.06;;;10.49;100.00
6028;BME280;3042;43.194;27.646;2023-02-03T02:33:10;101817.13;;;10.33;100.00
6028;BME280;3042;43.194;27.646;2023-02-03T02:35:55;101831.19;;;10.25;100.00
6028;BME280;3042;43.194;27.646;2023-02-03T02:38:35;101826.34;;;10.16;100.00
6028;BME280;3042;43.194;27.646;2023-02-03T02:41:07;101829.34;;;10.35;100.00
6028;BME280;3042;43.194;27.646;2023-02-03T02:43:40;101830.66;;;10.57;100.00
6028;BME280;3042;43.194;27.646;2023-02-03T02:46:10;101822.47;;;10.64;100.00
6028;BME280;3042;43.194;27.646;2023-02-03T02:48:45;101826.19;;;10.54;100.00
6028;BME280;3042;43.194;27.646;2023-02-03T02:51:15;101845.09;;;10.27;100.00
6028;BME280;3042;43.194;27.646;2023-02-03T02:53:45;101862.50;;;10.03;100.00
6028;BME280;3042;43.194;27.646;2023-02-03T02:56:15;101858.34;;;10.05;100.00
6028;BME280;3042;43.194;27.646;2023-02-03T02:58:46;101856.16;;;9.98;100.00
6028;BME280;3042;43.194;27.646;2023-02-03T03:01:15;101867.28;;;9.83;100.00
6028;BME280;3042;43.194;27.646;2023-02-03T03:03:44;101876.00;;;9.85;100.00
6028;BME280;3042;43.194;27.646;2023-02-03T03:06:14;101602.41;;;7.87;100.00
6028;BME280;3042;43.194;27.646;2023-02-03T03:08:47;101872.34;;;9.82;100.00
6028;BME280;3042;43.194;27.646;2023-02-03T03:11:16;101887.94;;;9.83;100.00
6028;BME280;3042;43.194;27.646;2023-02-03T03:13:48;101877.59;;;9.83;100.00
6028;BME280;3042;43.194;27.646;2023-02-03T03:16:17;101875.78;;;9.69;100.00
6028;BME280;3042;43.194;27.646;2023-02-03T03:18:51;101663.06;;;8.34;100.00
6028;BME280;3042;43.194;27.646;2023-02-03T03:21:23;101868.44;;;9.75;100.00
6028;BME280;3042;43.194;27.646;2023-02-03T03:23:53;101867.63;;;9.76;100.00
6028;BME280;3042;43.194;27.646;2023-02-03T03:26:26;101868.44;;;9.75;100.00
6028;BME280;3042;43.194;27.646;2023-02-03T03:29:02;101868.03;;;9.69;100.00
6028;BME280;3042;43.194;27.646;2023-02-03T03:31:32;101875.78;;;9.69;100.00
6028;BME280;3042;43.194;27.646;2023-02-03T03:34:01;101871.06;;;9.88;100.00
6028;BME280;3042;43.194;27.646;2023-02-03T03:36:31;101869.84;;;9.97;100.00
6028;BME280;3042;43.194;27.646;2023-02-03T03:39:06;101880.28;;;9.98;100.00
6028;BME280;3042;43.194;27.646;2023-02-03T03:41:40;101882.97;;;9.86;100.00
6028;BME280;3042;43.194;27.646;2023-02-03T03:44:12;101560.69;;;7.79;100.00
6028;BME280;3042;43.194;27.646;2023-02-03T03:46:44;101902.19;;;9.65;100.00
6028;BME280;3042;43.194;27.646;2023-02-03T03:49:16;101903.47;;;9.33;100.00
6028;BME280;3042;43.194;27.646;2023-02-03T03:51:47;101904.50;;;9.35;100.00
6028;BME280;3042;43.194;27.646;2023-02-03T03:54:19;101906.88;;;9.32;100.00
6028;BME280;3042;43.194;27.646;2023-02-03T03:56:53;101894.34;;;9.25;100.00
6028;BME280;3042;43.194;27.646;2023-02-03T03:59:25;101562.84;;;7.36;100.00
6028;BME280;3042;43.194;27.646;2023-02-03T04:01:54;101897.31;;;9.18;100.00
6028;BME280;3042;43.194;27.646;2023-02-03T04:04:24;101904.66;;;9.25;100.00
6028;BME280;3042;43.194;27.646;2023-02-03T04:06:52;101704.63;;;7.90;100.00
6028;BME280;3042;43.194;27.646;2023-02-03T04:09:20;101922.91;;;9.03;100.00
6028;BME280;3042;43.194;27.646;2023-02-03T04:11:47;101921.56;;;8.96;100.00
6028;BME280;3042;43.194;27.646;2023-02-03T04:14:32;101916.22;;;8.93;100.00
6028;BME280;3042;43.194;27.646;2023-02-03T04:16:59;101918.22;;;8.97;100.00
6028;BME280;3042;43.194;27.646;2023-02-03T04:19:28;101912.91;;;9.07;100.00
6028;BME280;3042;43.194;27.646;2023-02-03T04:21:55;101643.25;;;7.22;100.00
6028;BME280;3042;43.194;27.646;2023-02-03T04:24:22;101925.31;;;8.88;100.00
6028;BME280;3042;43.194;27.646;2023-02-03T04:26:49;101928.53;;;8.97;100.00
6028;BME280;3042;43.194;27.646;2023-02-03T04:29:16;101936.66;;;9.03;100.00
6028;BME280;3042;43.194;27.646;2023-02-03T04:31:43;101913.16;;;8.99;100.00
6028;BME280;3042;43.194;27.646;2023-02-03T04:34:11;101930.22;;;9.22;100.00
6028;BME280;3042;43.194;27.646;2023-02-03T04:36:39;101776.72;;;8.63;100.00
6028;BME280;3042;43.194;27.646;2023-02-03T04:39:06;101928.59;;;9.36;100.00
6028;BME280;3042;43.194;27.646;2023-02-03T04:41:33;101924.63;;;9.41;100.00
6028;BME280;3042;43.194;27.646;2023-02-03T04:44:00;101919.78;;;9.45;100.00
6028;BME280;3042;43.194;27.646;2023-02-03T04:46:27;101918.78;;;9.43;100.00
6028;BME280;3042;43.194;27.646;2023-02-03T04:48:54;101923.16;;;9.44;100.00
6028;BME280;3042;43.194;27.646;2023-02-03T04:51:21;101921.78;;;9.49;100.00
6028;BME280;3042;43.194;27.646;2023-02-03T04:53:49;101925.94;;;9.47;100.00
6028;BME280;3042;43.194;27.646;2023-02-03T04:56:16;101931.84;;;9.33;100.00
6028;BME280;3042;43.194;27.646;2023-02-03T04:58:43;101933.28;;;9.41;100.00
6028;BME280;3042;43.194;27.646;2023-02-03T05:01:10;101937.06;;;9.46;100.00
6028;BME280;3042;43.194;27.646;2023-02-03T05:03:37;101947.66;;;9.38;100.00
6028;BME280;3042;43.194;27.646;2023-02-03T05:06:05;101942.00;;;9.43;100.00
6028;BME280;3042;43.194;27.646;2023-02-03T05:08:32;101949.53;;;9.40;100.00
6028;BME280;3042;43.194;27.646;2023-02-03T05:11:00;101914.22;;;9.39;100.00
6028;BME280;3042;43.194;27.646;2023-02-03T05:13:27;101951.75;;;9.47;100.00
6028;BME280;3042;43.194;27.646;2023-02-03T05:15:55;101951.66;;;9.46;100.00
6028;BME280;3042;43.194;27.646;2023-02-03T05:18:22;101953.88;;;9.53;100.00
6028;BME280;3042;43.194;27.646;2023-02-03T05:20:49;101954.06;;;9.56;100.00
6028;BME280;3042;43.194;27.646;2023-02-03T05:23:16;101934.88;;;9.39;100.00
6028;BME280;3042;43.194;27.646;2023-02-03T05:25:43;101888.13;;;9.09;100.00
6028;BME280;3042;43.194;27.646;2023-02-03T05:28:11;101965.91;;;9.66;100.00
6028;BME280;3042;43.194;27.646;2023-02-03T05:30:38;101987.50;;;9.55;100.00
6028;BME280;3042;43.194;27.646;2023-02-03T05:33:06;101997.97;;;9.44;100.00
6028;BME280;3042;43.194;27.646;2023-02-03T05:35:33;101998.28;;;9.49;100.00
6028;BME280;3042;43.194;27.646;2023-02-03T05:38:00;101992.19;;;9.60;100.00
6028;BME280;3042;43.194;27.646;2023-02-03T05:40:27;102001.69;;;9.36;100.00
6028;BME280;3042;43.194;27.646;2023-02-03T05:43:13;101993.09;;;9.61;100.00
6028;BME280;3042;43.194;27.646;2023-02-03T05:45:40;102006.94;;;9.49;100.00
6028;BME280;3042;43.194;27.646;2023-02-03T05:48:07;102011.72;;;9.57;100.00
6028;BME280;3042;43.194;27.646;2023-02-03T05:50:35;102000.97;;;9.76;100.00
6028;BME280;3042;43.194;27.646;2023-02-03T05:53:03;101829.50;;;8.82;100.00
6028;BME280;3042;43.194;27.646;2023-02-03T05:55:31;101999.50;;;9.79;100.00
6028;BME280;3042;43.194;27.646;2023-02-03T05:57:59;102003.47;;;9.87;100.00
6028;BME280;3042;43.194;27.646;2023-02-03T06:00:28;102001.56;;;10.10;100.00
6028;BME280;3042;43.194;27.646;2023-02-03T06:02:57;102007.69;;;9.99;100.00
6028;BME280;3042;43.194;27.646;2023-02-03T06:05:24;101831.72;;;8.89;100.00
6028;BME280;3042;43.194;27.646;2023-02-03T06:07:53;102015.03;;;10.06;100.00
6028;BME280;3042;43.194;27.646;2023-02-03T06:10:20;101993.69;;;10.47;100.00
6028;BME280;3042;43.194;27.646;2023-02-03T06:12:48;101829.53;;;9.59;100.00
6028;BME280;3042;43.194;27.646;2023-02-03T06:15:15;101986.59;;;10.84;100.00
6028;BME280;3042;43.194;27.646;2023-02-03T06:17:44;101931.50;;;10.85;100.00
6028;BME280;3042;43.194;27.646;2023-02-03T06:20:13;101980.41;;;11.24;100.00
6028;BME280;3042;43.194;27.646;2023-02-03T06:22:41;101879.63;;;10.97;100.00
6028;BME280;3042;43.194;27.646;2023-02-03T06:25:08;101977.59;;;11.34;100.00
6028;BME280;3042;43.194;27.646;2023-02-03T06:27:35;101974.28;;;11.65;100.00
6028;BME280;3042;43.194;27.646;2023-02-03T06:30:03;101978.19;;;11.73;100.00
6028;BME280;3042;43.194;27.646;2023-02-03T06:32:30;101986.44;;;11.80;100.00
6028;BME280;3042;43.194;27.646;2023-02-03T06:34:58;101966.66;;;12.11;100.00
6028;BME280;3042;43.194;27.646;2023-02-03T06:37:25;101659.25;;;10.00;100.00
6028;BME280;3042;43.194;27.646;2023-02-03T06:39:52;101991.50;;;11.92;100.00
6028;BME280;3042;43.194;27.646;2023-02-03T06:42:19;101981.84;;;12.04;100.00
6028;BME280;3042;43.194;27.646;2023-02-03T06:44:46;101993.88;;;11.89;99.50
6028;BME280;3042;43.194;27.646;2023-02-03T06:47:13;102000.44;;;11.84;99.42
6028;BME280;3042;43.194;27.646;2023-02-03T06:49:40;101906.16;;;11.51;98.74
6028;BME280;3042;43.194;27.646;2023-02-03T06:52:09;101983.63;;;12.20;99.15
6028;BME280;3042;43.194;27.646;2023-02-03T06:54:36;101854.19;;;11.33;99.12
6028;BME280;3042;43.194;27.646;2023-02-03T06:57:03;101987.84;;;12.03;99.17
6028;BME280;3042;43.194;27.646;2023-02-03T06:59:30;101986.94;;;12.18;99.77
6028;BME280;3042;43.194;27.646;2023-02-03T07:01:57;101993.34;;;12.10;100.00
6028;BME280;3042;43.194;27.646;2023-02-03T07:04:24;101988.97;;;12.38;100.00
6028;BME280;3042;43.194;27.646;2023-02-03T07:06:53;101992.28;;;12.51;100.00
6028;BME280;3042;43.194;27.646;2023-02-03T07:09:21;101986.84;;;12.77;99.66
6028;BME280;3042;43.194;27.646;2023-02-03T07:11:48;101996.53;;;12.65;98.18
6028;BME280;3042;43.194;27.646;2023-02-03T07:14:15;101996.38;;;12.62;97.46
6028;BME280;3042;43.194;27.646;2023-02-03T07:16:43;101994.91;;;12.67;97.53
6028;BME280;3042;43.194;27.646;2023-02-03T07:19:10;102003.50;;;12.66;97.38
6028;BME280;3042;43.194;27.646;2023-02-03T07:21:37;101976.34;;;12.44;97.51
6028;BME280;3042;43.194;27.646;2023-02-03T07:24:04;101996.53;;;12.65;97.37
6028;BME280;3042;43.194;27.646;2023-02-03T07:26:33;101882.47;;;12.19;98.01
6028;BME280;3042;43.194;27.646;2023-02-03T07:29:00;101775.88;;;11.06;97.54
6028;BME280;3042;43.194;27.646;2023-02-03T07:31:27;102002.00;;;12.40;98.63
6028;BME280;3042;43.194;27.646;2023-02-03T07:33:54;102000.66;;;12.46;98.39
6028;BME280;3042;43.194;27.646;2023-02-03T07:36:21;102003.72;;;12.39;99.26
6028;BME280;3042;43.194;27.646;2023-02-03T07:38:48;102011.41;;;12.38;99.79
6028;BME280;3042;43.194;27.646;2023-02-03T07:41:15;102009.78;;;12.40;99.38
6028;BME280;3042;43.194;27.646;2023-02-03T07:43:44;101998.31;;;12.66;100.00
6028;BME280;3042;43.194;27.646;2023-02-03T07:46:11;102003.16;;;12.60;100.00
6028;BME280;3042;43.194;27.646;2023-02-03T07:48:38;102015.50;;;12.49;100.00
6028;BME280;3042;43.194;27.646;2023-02-03T07:51:05;102006.91;;;12.65;100.00
6028;BME280;3042;43.194;27.646;2023-02-03T07:53:33;102005.09;;;12.64;100.00
6028;BME280;3042;43.194;27.646;2023-02-03T07:56:00;102015.47;;;12.64;100.00
6028;BME280;3042;43.194;27.646;2023-02-03T07:58:27;102008.34;;;12.60;100.00
6028;BME280;3042;43.194;27.646;2023-02-03T08:00:56;101906.16;;;11.66;100.00
6028;BME280;3042;43.194;27.646;2023-02-03T08:03:23;101980.50;;;12.26;100.00
6028;BME280;3042;43.194;27.646;2023-02-03T08:05:50;101935.47;;;12.09;100.00
6028;BME280;3042;43.194;27.646;2023-02-03T08:08:18;101999.38;;;12.55;100.00
6028;BME280;3042;43.194;27.646;2023-02-03T08:10:45;102032.00;;;12.66;100.00
6028;BME280;3042;43.194;27.646;2023-02-03T08:13:12;102033.69;;;12.80;100.00
6028;BME280;3042;43.194;27.646;2023-02-03T08:15:39;102033.34;;;12.74;100.00
6028;BME280;3042;43.194;27.646;2023-02-03T08:18:07;102034.97;;;12.72;100.00
6028;BME280;3042;43.194;27.646;2023-02-03T08:20:45;102031.91;;;12.79;100.00
6028;BME280;3042;43.194;27.646;2023-02-03T08:23:15;102039.91;;;12.53;100.00
6028;BME280;3042;43.194;27.646;2023-02-03T08:25:42;102006.94;;;12.06;100.00
6028;BME280;3042;43.194;27.646;2023-02-03T08:28:09;102037.75;;;12.60;100.00
6028;BME280;3042;43.194;27.646;2023-02-03T08:30:37;102033.00;;;12.68;100.00
6028;BME280;3042;43.194;27.646;2023-02-03T08:33:04;102035.06;;;12.74;100.00
6028;BME280;3042;43.194;27.646;2023-02-03T08:35:32;102034.97;;;12.72;100.00
6028;BME280;3042;43.194;27.646;2023-02-03T08:37:59;102027.41;;;12.92;100.00
6028;BME280;3042;43.194;27.646;2023-02-03T08:40:26;101997.25;;;12.62;100.00
6028;BME280;3042;43.194;27.646;2023-02-03T08:42:53;102039.69;;;12.79;100.00
6028;BME280;3042;43.194;27.646;2023-02-03T08:45:20;102044.25;;;12.83;100.00
6028;BME280;3042;43.194;27.646;2023-02-03T08:47:47;101988.13;;;12.69;100.00
6028;BME280;3042;43.194;27.646;2023-02-03T08:50:14;102030.00;;;13.23;100.00
6028;BME280;3042;43.194;27.646;2023-02-03T08:52:43;102032.50;;;13.21;100.00
6028;BME280;3042;43.194;27.646;2023-02-03T08:55:10;102019.56;;;13.38;100.00
6028;BME280;3042;43.194;27.646;2023-02-03T08:57:37;102038.06;;;13.27;100.00
6028;BME280;3042;43.194;27.646;2023-02-03T09:00:08;102032.47;;;13.52;100.00
6028;BME280;3042;43.194;27.646;2023-02-03T09:02:35;102034.91;;;13.49;100.00
6028;BME280;3042;43.194;27.646;2023-02-03T09:05:02;102029.81;;;13.67;100.00
6028;BME280;3042;43.194;27.646;2023-02-03T09:07:30;102028.22;;;13.87;100.00
6028;BME280;3042;43.194;27.646;2023-02-03T09:09:58;102014.31;;;14.03;100.00
6028;BME280;3042;43.194;27.646;2023-02-03T09:12:25;102028.38;;;13.90;100.00
6028;BME280;3042;43.194;27.646;2023-02-03T09:14:52;102018.72;;;13.88;100.00
6028;BME280;3042;43.194;27.646;2023-02-03T09:17:19;102030.84;;;13.71;100.00
6028;BME280;3042;43.194;27.646;2023-02-03T09:19:46;101956.09;;;13.65;100.00
6028;BME280;3042;43.194;27.646;2023-02-03T09:22:13;102033.81;;;13.79;100.00
6028;BME280;3042;43.194;27.646;2023-02-03T09:24:40;102026.94;;;13.96;100.00
6028;BME280;3042;43.194;27.646;2023-02-03T09:27:09;102019.41;;;13.67;100.00
6028;BME280;3042;43.194;27.646;2023-02-03T09:29:36;101902.56;;;13.18;100.00
6028;BME280;3042;43.194;27.646;2023-02-03T09:32:03;102003.03;;;14.03;100.00
6028;BME280;3042;43.194;27.646;2023-02-03T09:34:34;101863.22;;;13.10;100.00
6028;BME280;3042;43.194;27.646;2023-02-03T09:37:02;102003.78;;;14.00;100.00
6028;BME280;3042;43.194;27.646;2023-02-03T09:39:29;101993.09;;;14.12;100.00
6028;BME280;3042;43.194;27.646;2023-02-03T09:42:13;101976.69;;;14.49;100.00
6028;BME280;3042;43.194;27.646;2023-02-03T09:44:49;101991.03;;;14.41;100.00
6028;BME280;3042;43.194;27.646;2023-02-03T09:47:22;101971.97;;;14.58;100.00
6028;BME280;3042;43.194;27.646;2023-02-03T09:49:54;101975.63;;;14.62;100.00
6028;BME280;3042;43.194;27.646;2023-02-03T09:52:24;101932.94;;;14.76;100.00
6028;BME280;3042;43.194;27.646;2023-02-03T09:54:57;101960.03;;;14.99;99.99
6028;BME280;3042;43.194;27.646;2023-02-03T09:57:41;101963.50;;;14.99;99.59
6028;BME280;3042;43.194;27.646;2023-02-03T10:00:18;101968.16;;;14.87;97.66
6028;BME280;3042;43.194;27.646;2023-02-03T10:02:54;101819.00;;;14.31;98.15
6028;BME280;3042;43.194;27.646;2023-02-03T10:05:32;101938.97;;;15.33;97.89
6028;BME280;3042;43.194;27.646;2023-02-03T10:08:09;101953.19;;;15.20;97.37
6028;BME280;3042;43.194;27.646;2023-02-03T10:10:40;101958.59;;;15.06;97.22
6028;BME280;3042;43.194;27.646;2023-02-03T10:13:20;101946.28;;;15.40;95.77
6028;BME280;3042;43.194;27.646;2023-02-03T10:16:07;101807.34;;;14.99;95.43
6028;BME280;3042;43.194;27.646;2023-02-03T10:18:40;101940.06;;;15.58;95.34
6028;BME280;3042;43.194;27.646;2023-02-03T10:21:15;101933.53;;;15.68;94.21
6028;BME280;3042;43.194;27.646;2023-02-03T10:23:44;101934.84;;;15.58;93.38
6028;BME280;3042;43.194;27.646;2023-02-03T10:26:16;101939.66;;;15.49;89.85
6028;BME280;3042;43.194;27.646;2023-02-03T10:28:52;101893.56;;;15.67;90.57
6028;BME280;3042;43.194;27.646;2023-02-03T10:31:21;101942.56;;;15.55;88.92
6028;BME280;3042;43.194;27.646;2023-02-03T10:33:54;101910.88;;;16.07;87.24
6028;BME280;3042;43.194;27.646;2023-02-03T10:36:26;101949.78;;;15.81;85.22
6028;BME280;3042;43.194;27.646;2023-02-03T10:39:02;101937.72;;;15.83;82.96
6028;BME280;3042;43.194;27.646;2023-02-03T10:41:30;101867.00;;;15.55;82.05
6028;BME280;3042;43.194;27.646;2023-02-03T10:44:01;101940.47;;;15.67;82.89
6028;BME280;3042;43.194;27.646;2023-02-03T10:46:31;101924.94;;;15.90;83.39
6028;BME280;3042;43.194;27.646;2023-02-03T10:48:59;101942.16;;;15.46;85.96
6028;BME280;3042;43.194;27.646;2023-02-03T10:51:28;101955.78;;;15.59;89.73
6028;BME280;3042;43.194;27.646;2023-02-03T10:53:56;101955.56;;;15.74;90.92
6028;BME280;3042;43.194;27.646;2023-02-03T10:56:26;101894.69;;;15.72;85.33
6028;BME280;3042;43.194;27.646;2023-02-03T10:58:56;101921.38;;;16.30;82.27
6028;BME280;3042;43.194;27.646;2023-02-03T11:01:26;101900.25;;;16.68;80.32
6028;BME280;3042;43.194;27.646;2023-02-03T11:03:56;101893.38;;;17.17;79.85
6028;BME280;3042;43.194;27.646;2023-02-03T11:06:24;101899.28;;;17.12;80.12
6028;BME280;3042;43.194;27.646;2023-02-03T11:08:52;101882.06;;;17.42;78.96
6028;BME280;3042;43.194;27.646;2023-02-03T11:11:21;101864.31;;;17.83;77.32
6028;BME280;3042;43.194;27.646;2023-02-03T11:13:54;101851.31;;;18.13;75.96
6028;BME280;3042;43.194;27.646;2023-02-03T11:16:22;101707.66;;;16.60;78.45
6028;BME280;3042;43.194;27.646;2023-02-03T11:19:01;101893.34;;;17.41;78.60
6028;BME280;3042;43.194;27.646;2023-02-03T11:21:31;101913.25;;;17.14;79.70
6028;BME280;3042;43.194;27.646;2023-02-03T11:24:04;101931.59;;;16.91;78.39
6028;BME280;3042;43.194;27.646;2023-02-03T11:26:35;101681.66;;;15.68;77.64
6028;BME280;3042;43.194;27.646;2023-02-03T11:29:04;101862.78;;;16.44;76.40
6028;BME280;3042;43.194;27.646;2023-02-03T11:31:34;101825.56;;;15.61;76.08
6028;BME280;3042;43.194;27.646;2023-02-03T11:34:05;101942.59;;;16.61;75.88
6028;BME280;3042;43.194;27.646;2023-02-03T11:36:36;101955.28;;;16.30;74.55
6028;BME280;3042;43.194;27.646;2023-02-03T11:39:09;101908.19;;;16.27;74.95
6028;BME280;3042;43.194;27.646;2023-02-03T11:41:38;101948.63;;;16.38;75.85
6028;BME280;3042;43.194;27.646;2023-02-03T11:44:14;101922.47;;;16.80;74.21
6028;BME280;3042;43.194;27.646;2023-02-03T11:46:43;101920.91;;;16.85;74.35
6028;BME280;3042;43.194;27.646;2023-02-03T11:52:06;101922.09;;;16.93;73.35
6028;BME280;3042;43.194;27.646;2023-02-03T11:54:48;101879.53;;;16.73;72.92
6028;BME280;3042;43.194;27.646;2023-02-03T11:57:30;101914.50;;;16.54;71.89
6028;BME280;3042;43.194;27.646;2023-02-03T12:00:07;101942.50;;;16.58;72.56
6028;BME280;3042;43.194;27.646;2023-02-03T12:02:58;101933.75;;;16.79;73.52
6028;BME280;3042;43.194;27.646;2023-02-03T12:06:02;101928.47;;;17.01;73.79
6028;BME280;3042;43.194;27.646;2023-02-03T12:08:42;101890.28;;;16.81;73.88
6028;BME280;3042;43.194;27.646;2023-02-03T12:11:20;101887.09;;;16.65;74.49
6028;BME280;3042;43.194;27.646;2023-02-03T12:14:25;101899.38;;;16.91;75.41
6028;BME280;3042;43.194;27.646;2023-02-03T12:17:14;101919.69;;;16.99;75.78
6028;BME280;3042;43.194;27.646;2023-02-03T12:19:57;101844.56;;;16.45;75.34
6028;BME280;3042;43.194;27.646;2023-02-03T12:22:34;101811.56;;;16.01;75.00
6028;BME280;3042;43.194;27.646;2023-02-03T12:25:13;101910.69;;;16.68;74.86
6028;BME280;3042;43.194;27.646;2023-02-03T12:27:49;101921.25;;;16.94;75.33
6028;BME280;3042;43.194;27.646;2023-02-03T12:30:24;101940.09;;;16.42;75.31
6028;BME280;3042;43.194;27.646;2023-02-03T12:32:56;101857.28;;;15.93;74.89
6028;BME280;3042;43.194;27.646;2023-02-03T12:35:28;101942.81;;;16.45;74.43
6028;BME280;3042;43.194;27.646;2023-02-03T12:38:03;101939.59;;;16.51;73.98
6028;BME280;3042;43.194;27.646;2023-02-03T12:40:35;101942.72;;;16.42;74.44
6028;BME280;3042;43.194;27.646;2023-02-03T12:43:16;101879.53;;;16.06;75.23
6028;BME280;3042;43.194;27.646;2023-02-03T12:45:50;101984.78;;;16.29;76.44
6028;BME280;3042;43.194;27.646;2023-02-03T12:48:22;101959.84;;;16.14;76.46
6028;BME280;3042;43.194;27.646;2023-02-03T12:50:53;101959.59;;;16.08;77.61
6028;BME280;3042;43.194;27.646;2023-02-03T12:53:28;101951.72;;;16.07;78.78
6028;BME280;3042;43.194;27.646;2023-02-03T12:55:59;101956.94;;;16.07;79.71
6028;BME280;3042;43.194;27.646;2023-02-03T12:58:32;101941.50;;;16.34;78.95
6028;BME280;3042;43.194;27.646;2023-02-03T13:01:05;101928.66;;;16.61;78.29
6028;BME280;3042;43.194;27.646;2023-02-03T13:03:38;101924.56;;;16.67;77.50
6028;BME280;3042;43.194;27.646;2023-02-03T13:06:11;101922.97;;;16.71;77.15
6028;BME280;3042;43.194;27.646;2023-02-03T13:08:51;101842.88;;;16.46;75.56
6028;BME280;3042;43.194;27.646;2023-02-03T13:11:23;101913.94;;;16.84;75.11
6028;BME280;3042;43.194;27.646;2023-02-03T13:13:55;101920.06;;;16.63;74.39
6028;BME280;3042;43.194;27.646;2023-02-03T13:16:28;101895.56;;;16.37;74.69